sensor_id;sensor_type;location;lat;lon;timestamp;P1;durP1;ratioP1;P2;durP2;ratioP2
78750;SDS011;68070;50.954;11.060;2023-12-14T00:01:33;1.70;;;0.80;;
78750;SDS011;68070;50.954;11.060;2023-12-14T00:03:58;1.00;;;0.70;;
78750;SDS011;68070;50.954;11.060;2023-12-14T00:06:24;0.70;;;0.60;;
78750;SDS011;68070;50.954;11.060;2023-12-14T00:11:14;2.00;;;0.70;;
78750;SDS011;68070;50.954;11.060;2023-12-14T00:13:39;0.40;;;0.40;;
78750;SDS011;68070;50.954;11.060;2023-12-14T00:16:05;0.80;;;0.60;;
78750;SDS011;68070;50.954;11.060;2023-12-14T00:18:31;1.30;;;1.00;;
78750;SDS011;68070;50.954;11.060;2023-12-14T00:20:56;2.10;;;0.80;;
78750;SDS011;68070;50.954;11.060;2023-12-14T00:25:48;1.70;;;1.30;;
78750;SDS011;68070;50.954;11.060;2023-12-14T00:28:13;2.70;;;1.50;;
78750;SDS011;68070;50.954;11.060;2023-12-14T00:30:39;2.00;;;1.30;;
78750;SDS011;68070;50.954;11.060;2023-12-14T00:33:04;2.10;;;1.50;;
78750;SDS011;68070;50.954;11.060;2023-12-14T00:35:30;1.70;;;1.30;;
78750;SDS011;68070;50.954;11.060;2023-12-14T00:37:55;2.20;;;1.30;;
78750;SDS011;68070;50.954;11.060;2023-12-14T00:40:20;1.90;;;1.20;;
78750;SDS011;68070;50.954;11.060;2023-12-14T00:45:11;2.00;;;1.40;;
78750;SDS011;68070;50.954;11.060;2023-12-14T00:47:36;1.20;;;1.10;;
78750;SDS011;68070;50.954;11.060;2023-12-14T00:50:02;2.50;;;1.20;;
78750;SDS011;68070;50.954;11.060;2023-12-14T00:52:27;1.80;;;1.30;;
78750;SDS011;68070;50.954;11.060;2023-12-14T00:54:53;2.30;;;1.50;;
78750;SDS011;68070;50.954;11.060;2023-12-14T00:57:18;2.50;;;1.40;;
78750;SDS011;68070;50.954;11.060;2023-12-14T00:59:43;2.90;;;1.90;;
78750;SDS011;68070;50.954;11.060;2023-12-14T01:02:09;3.80;;;1.70;;
78750;SDS011;68070;50.954;11.060;2023-12-14T01:06:59;3.10;;;1.90;;
78750;SDS011;68070;50.954;11.060;2023-12-14T01:11:50;2.70;;;1.70;;
78750;SDS011;68070;50.954;11.060;2023-12-14T01:14:15;2.30;;;1.60;;
78750;SDS011;68070;50.954;11.060;2023-12-14T01:19:06;2.60;;;1.80;;
78750;SDS011;68070;50.954;11.060;2023-12-14T01:21:32;2.50;;;1.80;;
78750;SDS011;68070;50.954;11.060;2023-12-14T01:23:57;2.20;;;1.20;;
78750;SDS011;68070;50.954;11.060;2023-12-14T01:28:48;3.00;;;2.00;;
78750;SDS011;68070;50.954;11.060;2023-12-14T01:33:38;2.80;;;1.60;;
78750;SDS011;68070;50.954;11.060;2023-12-14T01:38:29;2.20;;;1.70;;
78750;SDS011;68070;50.954;11.060;2023-12-14T01:43:21;3.00;;;1.70;;
78750;SDS011;68070;50.954;11.060;2023-12-14T01:45:46;3.80;;;2.10;;
78750;SDS011;68070;50.954;11.060;2023-12-14T01:50:37;3.00;;;1.90;;
78750;SDS011;68070;50.954;11.060;2023-12-14T01:53:03;4.00;;;1.90;;
78750;SDS011;68070;50.954;11.060;2023-12-14T01:55:29;2.30;;;1.60;;
78750;SDS011;68070;50.954;11.060;2023-12-14T01:57:54;2.20;;;1.40;;
78750;SDS011;68070;50.954;11.060;2023-12-14T02:00:42;2.10;;;1.40;;
78750;SDS011;68070;50.954;11.060;2023-12-14T02:03:10;2.80;;;1.60;;
78750;SDS011;68070;50.954;11.060;2023-12-14T02:05:36;3.20;;;1.20;;
78750;SDS011;68070;50.954;11.060;2023-12-14T02:08:01;2.40;;;1.30;;
78750;SDS011;68070;50.954;11.060;2023-12-14T02:10:26;1.60;;;1.40;;
78750;SDS011;68070;50.954;11.060;2023-12-14T02:12:53;1.80;;;1.20;;
78750;SDS011;68070;50.954;11.060;2023-12-14T02:15:18;1.30;;;1.10;;
78750;SDS011;68070;50.954;11.060;2023-12-14T02:17:43;2.60;;;1.50;;
78750;SDS011;68070;50.954;11.060;2023-12-14T02:22:53;2.00;;;1.10;;
78750;SDS011;68070;50.954;11.060;2023-12-14T02:25:22;2.00;;;1.30;;
78750;SDS011;68070;50.954;11.060;2023-12-14T02:27:49;2.60;;;1.60;;
78750;SDS011;68070;50.954;11.060;2023-12-14T02:30:17;3.30;;;1.70;;
78750;SDS011;68070;50.954;11.060;2023-12-14T02:32:43;1.90;;;1.30;;
78750;SDS011;68070;50.954;11.060;2023-12-14T02:35:08;3.70;;;1.60;;
78750;SDS011;68070;50.954;11.060;2023-12-14T02:37:34;2.30;;;1.40;;
78750;SDS011;68070;50.954;11.060;2023-12-14T02:40:06;2.40;;;1.30;;
78750;SDS011;68070;50.954;11.060;2023-12-14T02:42:32;2.80;;;1.40;;
78750;SDS011;68070;50.954;11.060;2023-12-14T02:44:58;4.00;;;1.90;;
78750;SDS011;68070;50.954;11.060;2023-12-14T02:47:23;3.40;;;1.60;;
78750;SDS011;68070;50.954;11.060;2023-12-14T02:49:48;2.30;;;1.50;;
78750;SDS011;68070;50.954;11.060;2023-12-14T02:54:39;2.50;;;1.30;;
78750;SDS011;68070;50.954;11.060;2023-12-14T02:57:05;2.20;;;1.40;;
78750;SDS011;68070;50.954;11.060;2023-12-14T02:59:31;3.60;;;1.90;;
78750;SDS011;68070;50.954;11.060;2023-12-14T03:01:56;3.10;;;1.90;;
78750;SDS011;68070;50.954;11.060;2023-12-14T03:04:22;2.60;;;1.50;;
78750;SDS011;68070;50.954;11.060;2023-12-14T03:09:12;5.10;;;1.70;;
78750;SDS011;68070;50.954;11.060;2023-12-14T03:11:37;2.60;;;1.70;;
78750;SDS011;68070;50.954;11.060;2023-12-14T03:14:03;2.70;;;1.40;;
78750;SDS011;68070;50.954;11.060;2023-12-14T03:16:28;3.10;;;1.70;;
78750;SDS011;68070;50.954;11.060;2023-12-14T03:21:19;3.10;;;1.90;;
78750;SDS011;68070;50.954;11.060;2023-12-14T03:23:45;2.70;;;1.90;;
78750;SDS011;68070;50.954;11.060;2023-12-14T03:26:10;4.10;;;2.60;;
78750;SDS011;68070;50.954;11.060;2023-12-14T03:28:36;4.10;;;2.20;;
78750;SDS011;68070;50.954;11.060;2023-12-14T03:31:01;3.10;;;2.20;;
78750;SDS011;68070;50.954;11.060;2023-12-14T03:33:27;3.40;;;2.50;;
78750;SDS011;68070;50.954;11.060;2023-12-14T03:38:17;4.20;;;2.70;;
78750;SDS011;68070;50.954;11.060;2023-12-14T03:40:42;5.10;;;3.00;;
78750;SDS011;68070;50.954;11.060;2023-12-14T03:43:08;5.90;;;3.60;;
78750;SDS011;68070;50.954;11.060;2023-12-14T03:47:58;6.20;;;3.80;;
78750;SDS011;68070;50.954;11.060;2023-12-14T03:50:24;6.80;;;3.60;;
78750;SDS011;68070;50.954;11.060;2023-12-14T03:52:49;6.20;;;3.60;;
78750;SDS011;68070;50.954;11.060;2023-12-14T03:55:14;6.20;;;3.30;;
78750;SDS011;68070;50.954;11.060;2023-12-14T03:57:40;5.70;;;3.50;;
78750;SDS011;68070;50.954;11.060;2023-12-14T04:00:07;7.10;;;3.80;;
78750;SDS011;68070;50.954;11.060;2023-12-14T04:02:35;6.40;;;3.50;;
78750;SDS011;68070;50.954;11.060;2023-12-14T04:07:25;6.90;;;4.10;;
78750;SDS011;68070;50.954;11.060;2023-12-14T04:12:16;6.40;;;3.60;;
78750;SDS011;68070;50.954;11.060;2023-12-14T04:17:06;7.20;;;3.60;;
78750;SDS011;68070;50.954;11.060;2023-12-14T04:19:31;6.30;;;3.80;;
78750;SDS011;68070;50.954;11.060;2023-12-14T04:24:22;11.00;;;4.60;;
78750;SDS011;68070;50.954;11.060;2023-12-14T04:26:47;7.40;;;3.90;;
78750;SDS011;68070;50.954;11.060;2023-12-14T04:31:38;5.90;;;3.60;;
78750;SDS011;68070;50.954;11.060;2023-12-14T04:36:28;8.90;;;3.70;;
78750;SDS011;68070;50.954;11.060;2023-12-14T04:38:54;5.60;;;3.70;;
78750;SDS011;68070;50.954;11.060;2023-12-14T04:43:44;7.70;;;4.20;;
78750;SDS011;68070;50.954;11.060;2023-12-14T04:46:11;8.70;;;4.50;;
78750;SDS011;68070;50.954;11.060;2023-12-14T04:51:01;9.10;;;5.20;;
78750;SDS011;68070;50.954;11.060;2023-12-14T04:55:51;7.30;;;5.10;;
78750;SDS011;68070;50.954;11.060;2023-12-14T05:00:42;10.00;;;5.60;;
78750;SDS011;68070;50.954;11.060;2023-12-14T05:03:07;8.50;;;5.60;;
78750;SDS011;68070;50.954;11.060;2023-12-14T05:05:33;6.30;;;4.30;;
78750;SDS011;68070;50.954;11.060;2023-12-14T05:07:58;8.60;;;5.10;;
78750;SDS011;68070;50.954;11.060;2023-12-14T05:10:24;7.90;;;5.30;;
78750;SDS011;68070;50.954;11.060;2023-12-14T05:15:15;8.40;;;5.90;;
78750;SDS011;68070;50.954;11.060;2023-12-14T05:20:09;6.90;;;5.00;;
78750;SDS011;68070;50.954;11.060;2023-12-14T05:22:35;6.70;;;4.60;;
78750;SDS011;68070;50.954;11.060;2023-12-14T05:25:00;7.60;;;5.80;;
78750;SDS011;68070;50.954;11.060;2023-12-14T05:29:51;7.40;;;4.70;;
78750;SDS011;68070;50.954;11.060;2023-12-14T05:34:41;9.70;;;5.40;;
78750;SDS011;68070;50.954;11.060;2023-12-14T05:39:32;11.30;;;6.20;;
78750;SDS011;68070;50.954;11.060;2023-12-14T05:41:57;9.60;;;6.10;;
78750;SDS011;68070;50.954;11.060;2023-12-14T05:44:22;9.70;;;5.40;;
78750;SDS011;68070;50.954;11.060;2023-12-14T05:46:47;8.50;;;6.10;;
78750;SDS011;68070;50.954;11.060;2023-12-14T05:49:13;8.90;;;6.20;;
78750;SDS011;68070;50.954;11.060;2023-12-14T05:51:38;8.90;;;6.50;;
78750;SDS011;68070;50.954;11.060;2023-12-14T05:54:04;9.10;;;6.10;;
78750;SDS011;68070;50.954;11.060;2023-12-14T05:56:29;10.30;;;6.60;;
78750;SDS011;68070;50.954;11.060;2023-12-14T06:01:20;8.70;;;5.00;;
78750;SDS011;68070;50.954;11.060;2023-12-14T06:06:11;12.60;;;5.70;;
78750;SDS011;68070;50.954;11.060;2023-12-14T06:08:38;10.00;;;6.10;;
78750;SDS011;68070;50.954;11.060;2023-12-14T06:13:31;9.30;;;5.30;;
78750;SDS011;68070;50.954;11.060;2023-12-14T06:15:57;9.40;;;5.70;;
78750;SDS011;68070;50.954;11.060;2023-12-14T06:20:48;8.20;;;5.20;;
78750;SDS011;68070;50.954;11.060;2023-12-14T06:23:13;8.20;;;5.30;;
78750;SDS011;68070;50.954;11.060;2023-12-14T06:25:39;8.40;;;5.00;;
78750;SDS011;68070;50.954;11.060;2023-12-14T06:28:04;9.80;;;6.30;;
78750;SDS011;68070;50.954;11.060;2023-12-14T06:32:55;8.30;;;4.70;;
78750;SDS011;68070;50.954;11.060;2023-12-14T06:35:21;6.70;;;4.10;;
78750;SDS011;68070;50.954;11.060;2023-12-14T06:37:47;6.10;;;4.00;;
78750;SDS011;68070;50.954;11.060;2023-12-14T06:40:12;8.30;;;4.20;;
78750;SDS011;68070;50.954;11.060;2023-12-14T06:42:38;6.20;;;4.10;;
78750;SDS011;68070;50.954;11.060;2023-12-14T06:45:04;6.40;;;4.60;;
78750;SDS011;68070;50.954;11.060;2023-12-14T06:47:30;6.80;;;4.00;;
78750;SDS011;68070;50.954;11.060;2023-12-14T06:49:55;6.40;;;4.00;;
78750;SDS011;68070;50.954;11.060;2023-12-14T06:52:22;4.30;;;3.30;;
78750;SDS011;68070;50.954;11.060;2023-12-14T06:54:48;7.00;;;4.20;;
78750;SDS011;68070;50.954;11.060;2023-12-14T06:57:13;6.20;;;3.80;;
78750;SDS011;68070;50.954;11.060;2023-12-14T06:59:39;4.80;;;3.10;;
78750;SDS011;68070;50.954;11.060;2023-12-14T07:02:04;7.10;;;3.90;;
78750;SDS011;68070;50.954;11.060;2023-12-14T07:06:55;6.40;;;3.10;;
78750;SDS011;68070;50.954;11.060;2023-12-14T07:11:45;5.90;;;3.00;;
78750;SDS011;68070;50.954;11.060;2023-12-14T07:14:12;8.30;;;3.70;;
78750;SDS011;68070;50.954;11.060;2023-12-14T07:16:38;4.70;;;3.30;;
78750;SDS011;68070;50.954;11.060;2023-12-14T07:21:28;5.10;;;3.60;;
78750;SDS011;68070;50.954;11.060;2023-12-14T07:26:19;7.40;;;4.40;;
78750;SDS011;68070;50.954;11.060;2023-12-14T07:28:45;5.50;;;3.70;;
78750;SDS011;68070;50.954;11.060;2023-12-14T07:33:35;7.00;;;3.90;;
78750;SDS011;68070;50.954;11.060;2023-12-14T07:38:26;6.00;;;3.70;;
78750;SDS011;68070;50.954;11.060;2023-12-14T07:40:51;5.30;;;3.50;;
78750;SDS011;68070;50.954;11.060;2023-12-14T07:43:17;5.30;;;3.30;;
78750;SDS011;68070;50.954;11.060;2023-12-14T07:45:43;5.60;;;4.10;;
78750;SDS011;68070;50.954;11.060;2023-12-14T07:48:08;8.40;;;4.70;;
78750;SDS011;68070;50.954;11.060;2023-12-14T07:50:34;6.30;;;4.30;;
78750;SDS011;68070;50.954;11.060;2023-12-14T07:55:24;6.50;;;4.50;;
78750;SDS011;68070;50.954;11.060;2023-12-14T08:00:16;6.60;;;3.10;;
78750;SDS011;68070;50.954;11.060;2023-12-14T08:02:41;5.40;;;3.30;;
78750;SDS011;68070;50.954;11.060;2023-12-14T08:05:07;4.80;;;3.60;;
78750;SDS011;68070;50.954;11.060;2023-12-14T08:09:58;7.00;;;4.00;;
78750;SDS011;68070;50.954;11.060;2023-12-14T08:12:24;8.60;;;4.50;;
78750;SDS011;68070;50.954;11.060;2023-12-14T08:14:50;9.30;;;5.50;;
78750;SDS011;68070;50.954;11.060;2023-12-14T08:17:16;6.50;;;3.50;;
78750;SDS011;68070;50.954;11.060;2023-12-14T08:19:42;5.00;;;3.10;;
78750;SDS011;68070;50.954;11.060;2023-12-14T08:22:08;5.40;;;3.60;;
78750;SDS011;68070;50.954;11.060;2023-12-14T08:24:36;6.60;;;3.40;;
78750;SDS011;68070;50.954;11.060;2023-12-14T08:27:02;5.00;;;3.70;;
78750;SDS011;68070;50.954;11.060;2023-12-14T08:29:28;3.90;;;2.70;;
78750;SDS011;68070;50.954;11.060;2023-12-14T08:34:22;4.20;;;2.70;;
78750;SDS011;68070;50.954;11.060;2023-12-14T08:36:48;3.70;;;2.70;;
78750;SDS011;68070;50.954;11.060;2023-12-14T08:41:39;5.30;;;3.10;;
78750;SDS011;68070;50.954;11.060;2023-12-14T08:44:04;3.50;;;2.70;;
78750;SDS011;68070;50.954;11.060;2023-12-14T08:46:37;4.50;;;3.40;;
78750;SDS011;68070;50.954;11.060;2023-12-14T08:49:04;4.20;;;2.90;;
78750;SDS011;68070;50.954;11.060;2023-12-14T08:53:55;5.00;;;2.80;;
78750;SDS011;68070;50.954;11.060;2023-12-14T08:58:46;4.80;;;2.80;;
78750;SDS011;68070;50.954;11.060;2023-12-14T09:03:36;3.60;;;2.50;;
78750;SDS011;68070;50.954;11.060;2023-12-14T09:08:30;4.00;;;2.40;;
78750;SDS011;68070;50.954;11.060;2023-12-14T09:10:56;3.90;;;2.70;;
78750;SDS011;68070;50.954;11.060;2023-12-14T09:13:21;4.40;;;2.80;;
78750;SDS011;68070;50.954;11.060;2023-12-14T09:15:46;4.90;;;3.10;;
78750;SDS011;68070;50.954;11.060;2023-12-14T09:18:12;5.60;;;3.40;;
78750;SDS011;68070;50.954;11.060;2023-12-14T09:23:05;4.70;;;3.00;;
78750;SDS011;68070;50.954;11.060;2023-12-14T09:27:56;3.50;;;2.40;;
78750;SDS011;68070;50.954;11.060;2023-12-14T09:32:46;5.60;;;2.80;;
78750;SDS011;68070;50.954;11.060;2023-12-14T09:35:11;4.10;;;2.70;;
78750;SDS011;68070;50.954;11.060;2023-12-14T09:40:02;4.30;;;2.50;;
78750;SDS011;68070;50.954;11.060;2023-12-14T09:42:27;5.40;;;3.30;;
78750;SDS011;68070;50.954;11.060;2023-12-14T09:47:19;3.80;;;1.90;;
78750;SDS011;68070;50.954;11.060;2023-12-14T09:49:44;5.00;;;2.50;;
78750;SDS011;68070;50.954;11.060;2023-12-14T09:52:10;5.30;;;3.20;;
78750;SDS011;68070;50.954;11.060;2023-12-14T09:54:36;4.00;;;2.70;;
78750;SDS011;68070;50.954;11.060;2023-12-14T09:57:01;3.70;;;2.60;;
78750;SDS011;68070;50.954;11.060;2023-12-14T09:59:27;3.60;;;2.60;;
78750;SDS011;68070;50.954;11.060;2023-12-14T10:01:52;4.10;;;2.70;;
78750;SDS011;68070;50.954;11.060;2023-12-14T10:04:18;3.90;;;2.50;;
78750;SDS011;68070;50.954;11.060;2023-12-14T10:06:45;3.10;;;2.10;;
78750;SDS011;68070;50.954;11.060;2023-12-14T10:09:12;5.30;;;2.70;;
78750;SDS011;68070;50.954;11.060;2023-12-14T10:11:43;4.00;;;2.90;;
78750;SDS011;68070;50.954;11.060;2023-12-14T10:14:19;4.00;;;2.70;;
78750;SDS011;68070;50.954;11.060;2023-12-14T10:16:46;4.50;;;2.80;;
78750;SDS011;68070;50.954;11.060;2023-12-14T10:19:12;3.50;;;2.60;;
78750;SDS011;68070;50.954;11.060;2023-12-14T10:24:03;4.70;;;2.40;;
78750;SDS011;68070;50.954;11.060;2023-12-14T10:26:30;4.80;;;2.70;;
78750;SDS011;68070;50.954;11.060;2023-12-14T10:31:21;3.90;;;2.70;;
78750;SDS011;68070;50.954;11.060;2023-12-14T10:33:48;5.40;;;3.10;;
78750;SDS011;68070;50.954;11.060;2023-12-14T10:36:14;5.70;;;3.40;;
78750;SDS011;68070;50.954;11.060;2023-12-14T10:38:43;5.20;;;3.30;;
78750;SDS011;68070;50.954;11.060;2023-12-14T10:41:09;5.00;;;3.10;;
78750;SDS011;68070;50.954;11.060;2023-12-14T10:43:38;4.80;;;2.50;;
78750;SDS011;68070;50.954;11.060;2023-12-14T10:46:06;4.40;;;2.90;;
78750;SDS011;68070;50.954;11.060;2023-12-14T10:48:32;3.90;;;2.50;;
78750;SDS011;68070;50.954;11.060;2023-12-14T10:51:00;5.00;;;2.50;;
78750;SDS011;68070;50.954;11.060;2023-12-14T10:53:27;3.80;;;2.70;;
78750;SDS011;68070;50.954;11.060;2023-12-14T10:58:19;3.80;;;2.90;;
78750;SDS011;68070;50.954;11.060;2023-12-14T11:00:44;5.50;;;4.10;;
78750;SDS011;68070;50.954;11.060;2023-12-14T11:03:24;7.60;;;4.20;;
78750;SDS011;68070;50.954;11.060;2023-12-14T11:05:51;6.50;;;3.90;;
78750;SDS011;68070;50.954;11.060;2023-12-14T11:08:16;5.10;;;3.80;;
78750;SDS011;68070;50.954;11.060;2023-12-14T11:10:43;4.80;;;3.50;;
78750;SDS011;68070;50.954;11.060;2023-12-14T11:13:20;4.50;;;3.00;;
78750;SDS011;68070;50.954;11.060;2023-12-14T11:15:50;4.90;;;3.90;;
78750;SDS011;68070;50.954;11.060;2023-12-14T11:20:59;6.60;;;3.50;;
78750;SDS011;68070;50.954;11.060;2023-12-14T11:26:03;5.80;;;4.00;;
78750;SDS011;68070;50.954;11.060;2023-12-14T11:28:35;4.70;;;3.50;;
78750;SDS011;68070;50.954;11.060;2023-12-14T11:31:01;3.60;;;2.70;;
78750;SDS011;68070;50.954;11.060;2023-12-14T11:33:31;3.60;;;2.20;;
78750;SDS011;68070;50.954;11.060;2023-12-14T11:35:58;4.30;;;2.40;;
78750;SDS011;68070;50.954;11.060;2023-12-14T11:40:49;3.90;;;3.00;;
78750;SDS011;68070;50.954;11.060;2023-12-14T11:43:15;3.90;;;3.00;;
78750;SDS011;68070;50.954;11.060;2023-12-14T11:45:41;5.00;;;3.40;;
78750;SDS011;68070;50.954;11.060;2023-12-14T11:48:07;5.20;;;3.80;;
78750;SDS011;68070;50.954;11.060;2023-12-14T11:50:35;4.80;;;3.60;;
78750;SDS011;68070;50.954;11.060;2023-12-14T11:53:02;4.30;;;3.20;;
78750;SDS011;68070;50.954;11.060;2023-12-14T11:55:28;4.50;;;3.20;;
78750;SDS011;68070;50.954;11.060;2023-12-14T11:57:55;4.50;;;3.40;;
78750;SDS011;68070;50.954;11.060;2023-12-14T12:00:29;4.10;;;3.30;;
78750;SDS011;68070;50.954;11.060;2023-12-14T12:05:45;4.70;;;3.60;;
78750;SDS011;68070;50.954;11.060;2023-12-14T12:08:17;5.80;;;4.10;;
78750;SDS011;68070;50.954;11.060;2023-12-14T12:10:44;5.70;;;4.60;;
78750;SDS011;68070;50.954;11.060;2023-12-14T12:13:18;5.30;;;4.00;;
78750;SDS011;68070;50.954;11.060;2023-12-14T12:15:46;4.90;;;3.90;;
78750;SDS011;68070;50.954;11.060;2023-12-14T12:18:12;3.90;;;3.40;;
78750;SDS011;68070;50.954;11.060;2023-12-14T12:20:39;4.20;;;2.90;;
78750;SDS011;68070;50.954;11.060;2023-12-14T12:23:05;5.30;;;3.70;;
78750;SDS011;68070;50.954;11.060;2023-12-14T12:25:31;5.50;;;3.80;;
78750;SDS011;68070;50.954;11.060;2023-12-14T12:28:00;4.90;;;3.80;;
78750;SDS011;68070;50.954;11.060;2023-12-14T12:30:26;4.80;;;3.30;;
78750;SDS011;68070;50.954;11.060;2023-12-14T12:32:52;5.60;;;4.20;;
78750;SDS011;68070;50.954;11.060;2023-12-14T12:35:18;5.00;;;4.10;;
78750;SDS011;68070;50.954;11.060;2023-12-14T12:37:44;7.20;;;4.80;;
78750;SDS011;68070;50.954;11.060;2023-12-14T12:42:36;5.60;;;3.80;;
78750;SDS011;68070;50.954;11.060;2023-12-14T12:45:02;6.30;;;4.20;;
78750;SDS011;68070;50.954;11.060;2023-12-14T12:47:29;5.60;;;3.90;;
78750;SDS011;68070;50.954;11.060;2023-12-14T12:49:55;5.80;;;3.40;;
78750;SDS011;68070;50.954;11.060;2023-12-14T12:54:45;6.50;;;4.10;;
78750;SDS011;68070;50.954;11.060;2023-12-14T12:57:10;6.30;;;4.70;;
78750;SDS011;68070;50.954;11.060;2023-12-14T12:59:35;5.80;;;3.70;;
78750;SDS011;68070;50.954;11.060;2023-12-14T13:04:27;6.90;;;3.20;;
78750;SDS011;68070;50.954;11.060;2023-12-14T13:06:55;5.80;;;3.60;;
78750;SDS011;68070;50.954;11.060;2023-12-14T13:09:21;4.10;;;2.90;;
78750;SDS011;68070;50.954;11.060;2023-12-14T13:11:47;4.40;;;2.70;;
78750;SDS011;68070;50.954;11.060;2023-12-14T13:14:13;4.60;;;3.50;;
78750;SDS011;68070;50.954;11.060;2023-12-14T13:16:40;3.50;;;2.40;;
78750;SDS011;68070;50.954;11.060;2023-12-14T13:19:06;5.50;;;2.70;;
78750;SDS011;68070;50.954;11.060;2023-12-14T13:21:32;5.30;;;3.70;;
78750;SDS011;68070;50.954;11.060;2023-12-14T13:23:59;4.30;;;2.80;;
78750;SDS011;68070;50.954;11.060;2023-12-14T13:26:25;4.20;;;3.10;;
78750;SDS011;68070;50.954;11.060;2023-12-14T13:31:18;5.30;;;3.00;;
78750;SDS011;68070;50.954;11.060;2023-12-14T13:33:45;5.40;;;3.00;;
78750;SDS011;68070;50.954;11.060;2023-12-14T13:36:11;4.10;;;2.60;;
78750;SDS011;68070;50.954;11.060;2023-12-14T13:38:37;4.10;;;2.90;;
78750;SDS011;68070;50.954;11.060;2023-12-14T13:43:30;5.20;;;2.80;;
78750;SDS011;68070;50.954;11.060;2023-12-14T13:45:56;5.40;;;3.60;;
78750;SDS011;68070;50.954;11.060;2023-12-14T13:48:25;6.10;;;3.20;;
78750;SDS011;68070;50.954;11.060;2023-12-14T13:50:51;5.40;;;2.90;;
78750;SDS011;68070;50.954;11.060;2023-12-14T13:53:18;5.60;;;3.40;;
78750;SDS011;68070;50.954;11.060;2023-12-14T13:55:44;5.30;;;3.40;;
78750;SDS011;68070;50.954;11.060;2023-12-14T14:00:35;5.40;;;3.10;;
78750;SDS011;68070;50.954;11.060;2023-12-14T14:03:01;4.70;;;3.10;;
78750;SDS011;68070;50.954;11.060;2023-12-14T14:05:28;5.80;;;3.40;;
78750;SDS011;68070;50.954;11.060;2023-12-14T14:07:54;4.90;;;3.30;;
78750;SDS011;68070;50.954;11.060;2023-12-14T14:10:19;5.30;;;3.60;;
78750;SDS011;68070;50.954;11.060;2023-12-14T14:12:45;4.90;;;3.00;;
78750;SDS011;68070;50.954;11.060;2023-12-14T14:15:11;4.70;;;3.20;;
78750;SDS011;68070;50.954;11.060;2023-12-14T14:17:36;4.80;;;3.40;;
78750;SDS011;68070;50.954;11.060;2023-12-14T14:22:27;5.20;;;3.50;;
78750;SDS011;68070;50.954;11.060;2023-12-14T14:27:18;5.10;;;2.90;;
78750;SDS011;68070;50.954;11.060;2023-12-14T14:32:08;6.50;;;3.70;;
78750;SDS011;68070;50.954;11.060;2023-12-14T14:37:00;5.50;;;3.70;;
78750;SDS011;68070;50.954;11.060;2023-12-14T14:39:26;5.70;;;4.00;;
78750;SDS011;68070;50.954;11.060;2023-12-14T14:44:16;7.40;;;4.50;;
78750;SDS011;68070;50.954;11.060;2023-12-14T14:46:42;6.60;;;4.30;;
78750;SDS011;68070;50.954;11.060;2023-12-14T14:49:08;5.40;;;4.20;;
78750;SDS011;68070;50.954;11.060;2023-12-14T14:51:33;7.90;;;5.40;;
78750;SDS011;68070;50.954;11.060;2023-12-14T14:56:23;7.30;;;4.60;;
78750;SDS011;68070;50.954;11.060;2023-12-14T14:58:49;7.70;;;4.70;;
78750;SDS011;68070;50.954;11.060;2023-12-14T15:01:14;7.30;;;5.00;;
78750;SDS011;68070;50.954;11.060;2023-12-14T15:03:40;6.60;;;5.00;;
78750;SDS011;68070;50.954;11.060;2023-12-14T15:06:05;4.90;;;3.90;;
78750;SDS011;68070;50.954;11.060;2023-12-14T15:08:30;6.60;;;4.10;;
78750;SDS011;68070;50.954;11.060;2023-12-14T15:10:55;6.50;;;4.90;;
78750;SDS011;68070;50.954;11.060;2023-12-14T15:13:22;6.00;;;4.70;;
78750;SDS011;68070;50.954;11.060;2023-12-14T15:15:48;5.50;;;4.20;;
78750;SDS011;68070;50.954;11.060;2023-12-14T15:20:39;6.30;;;4.60;;
78750;SDS011;68070;50.954;11.060;2023-12-14T15:23:05;9.70;;;5.30;;
78750;SDS011;68070;50.954;11.060;2023-12-14T15:25:33;7.40;;;5.10;;
78750;SDS011;68070;50.954;11.060;2023-12-14T15:27:59;6.80;;;4.80;;
78750;SDS011;68070;50.954;11.060;2023-12-14T15:32:49;7.00;;;4.30;;
78750;SDS011;68070;50.954;11.060;2023-12-14T15:35:14;5.20;;;4.10;;
78750;SDS011;68070;50.954;11.060;2023-12-14T15:37:40;6.10;;;4.50;;
78750;SDS011;68070;50.954;11.060;2023-12-14T15:40:05;5.40;;;4.30;;
78750;SDS011;68070;50.954;11.060;2023-12-14T15:42:31;5.80;;;4.10;;
78750;SDS011;68070;50.954;11.060;2023-12-14T15:47:22;5.50;;;4.00;;
78750;SDS011;68070;50.954;11.060;2023-12-14T15:49:47;5.30;;;3.50;;
78750;SDS011;68070;50.954;11.060;2023-12-14T15:52:13;7.80;;;4.80;;
78750;SDS011;68070;50.954;11.060;2023-12-14T15:54:38;5.90;;;4.20;;
78750;SDS011;68070;50.954;11.060;2023-12-14T15:57:04;7.50;;;4.50;;
78750;SDS011;68070;50.954;11.060;2023-12-14T16:01:55;5.80;;;3.90;;
78750;SDS011;68070;50.954;11.060;2023-12-14T16:04:20;4.40;;;3.00;;
78750;SDS011;68070;50.954;11.060;2023-12-14T16:06:46;5.10;;;3.90;;
78750;SDS011;68070;50.954;11.060;2023-12-14T16:11:36;6.30;;;3.60;;
78750;SDS011;68070;50.954;11.060;2023-12-14T16:14:01;5.90;;;3.90;;
78750;SDS011;68070;50.954;11.060;2023-12-14T16:16:27;4.10;;;2.80;;
78750;SDS011;68070;50.954;11.060;2023-12-14T16:18:52;5.60;;;3.70;;
78750;SDS011;68070;50.954;11.060;2023-12-14T16:21:17;6.10;;;4.00;;
78750;SDS011;68070;50.954;11.060;2023-12-14T16:26:10;5.30;;;4.00;;
78750;SDS011;68070;50.954;11.060;2023-12-14T16:28:36;4.60;;;3.10;;
78750;SDS011;68070;50.954;11.060;2023-12-14T16:31:05;4.90;;;3.30;;
78750;SDS011;68070;50.954;11.060;2023-12-14T16:33:32;5.10;;;3.30;;
78750;SDS011;68070;50.954;11.060;2023-12-14T16:35:57;4.10;;;2.80;;
78750;SDS011;68070;50.954;11.060;2023-12-14T16:40:48;5.30;;;3.70;;
78750;SDS011;68070;50.954;11.060;2023-12-14T16:43:14;5.00;;;2.90;;
78750;SDS011;68070;50.954;11.060;2023-12-14T16:45:47;5.30;;;3.30;;
78750;SDS011;68070;50.954;11.060;2023-12-14T16:48:16;5.50;;;3.60;;
78750;SDS011;68070;50.954;11.060;2023-12-14T16:50:42;6.70;;;3.60;;
78750;SDS011;68070;50.954;11.060;2023-12-14T16:55:33;5.60;;;3.50;;
78750;SDS011;68070;50.954;11.060;2023-12-14T17:00:25;4.50;;;2.70;;
78750;SDS011;68070;50.954;11.060;2023-12-14T17:02:50;4.60;;;3.20;;
78750;SDS011;68070;50.954;11.060;2023-12-14T17:07:40;6.90;;;4.10;;
78750;SDS011;68070;50.954;11.060;2023-12-14T17:10:06;5.70;;;3.50;;
78750;SDS011;68070;50.954;11.060;2023-12-14T17:12:32;5.20;;;3.80;;
78750;SDS011;68070;50.954;11.060;2023-12-14T17:17:22;6.90;;;4.30;;
78750;SDS011;68070;50.954;11.060;2023-12-14T17:19:51;6.10;;;4.10;;
78750;SDS011;68070;50.954;11.060;2023-12-14T17:22:17;7.00;;;4.60;;
78750;SDS011;68070;50.954;11.060;2023-12-14T17:24:42;6.40;;;4.10;;
78750;SDS011;68070;50.954;11.060;2023-12-14T17:27:07;6.20;;;3.90;;
78750;SDS011;68070;50.954;11.060;2023-12-14T17:29:33;7.10;;;3.80;;
78750;SDS011;68070;50.954;11.060;2023-12-14T17:31:58;7.20;;;4.50;;
78750;SDS011;68070;50.954;11.060;2023-12-14T17:36:50;5.60;;;4.50;;
78750;SDS011;68070;50.954;11.060;2023-12-14T17:39:17;7.10;;;4.80;;
78750;SDS011;68070;50.954;11.060;2023-12-14T17:41:44;7.40;;;4.90;;
78750;SDS011;68070;50.954;11.060;2023-12-14T17:44:11;7.40;;;5.10;;
78750;SDS011;68070;50.954;11.060;2023-12-14T17:49:01;8.70;;;5.70;;
78750;SDS011;68070;50.954;11.060;2023-12-14T17:51:27;9.00;;;5.70;;
78750;SDS011;68070;50.954;11.060;2023-12-14T17:53:54;7.90;;;4.90;;
78750;SDS011;68070;50.954;11.060;2023-12-14T17:56:20;7.00;;;4.70;;
78750;SDS011;68070;50.954;11.060;2023-12-14T17:58:46;8.20;;;5.70;;
78750;SDS011;68070;50.954;11.060;2023-12-14T18:01:12;6.70;;;5.10;;
78750;SDS011;68070;50.954;11.060;2023-12-14T18:03:38;6.70;;;4.20;;